Pulau Tioman — 3EYO9 — position and weather

sailwx.info

Track history (hours):
 
Tides and Currents Weather Stations Pressure Air Temp Water Temp Dewpoint Dewpoint Depression Visibility Wind Speed Wind Dir Waves Ship Positions

Pulau Tioman

Last reported at 2016-Jul-26 02:31 UTC. Time now 2016-Jul-26 02:38 UTC.
Position N 35°25' E 139°42'.

Length 120 m; draft 6.5 m.

Type: Cargo ship. MMSI: 356613000.

Date/timePositionNaut miles runAvg speedWind from/ knotsBaromVisibWave heightAir tempDewpointWater temp
2016-Jul-26 02:31N 35°25' E 139°42'0 0.1
2016-Jul-26 01:31N 35°25' E 139°42'0 0.0
2016-Jul-26 00:31N 35°25' E 139°42'0 0.0
2016-Jul-25 23:31N 35°25' E 139°42'0 0.0
2016-Jul-25 22:31N 35°25' E 139°42'0 0.1
2016-Jul-25 21:31N 35°25' E 139°42'0 0.0
2016-Jul-25 20:31N 35°25' E 139°42'0 0.0
2016-Jul-25 19:31N 35°25' E 139°42'0 0.0
2016-Jul-25 18:31N 35°25' E 139°42'0 0.0
2016-Jul-25 17:31N 35°25' E 139°42'0 0.1
2016-Jul-25 16:31N 35°25' E 139°42'0 0.0
2016-Jul-25 15:31N 35°25' E 139°42'0 0.0
2016-Jul-25 14:31N 35°25' E 139°42'0 0.0
2016-Jul-25 13:31N 35°25' E 139°42'0 0.0
2016-Jul-25 12:31N 35°25' E 139°42'0 0.1
2016-Jul-25 11:31N 35°25' E 139°42'0 0.0
2016-Jul-25 10:31N 35°25' E 139°42'0 0.0
2016-Jul-25 09:31N 35°25' E 139°42'0 0.0
2016-Jul-25 08:31N 35°25' E 139°42'0 0.0
2016-Jul-25 07:31N 35°25' E 139°42'0 0.0
2016-Jul-25 06:31N 35°25' E 139°42'0 0.1
2016-Jul-25 05:25N 35°25' E 139°42'0 0.1
2016-Jul-25 04:31N 35°25' E 139°42'0 0.0
2016-Jul-25 03:31N 35°25' E 139°42'0 0.0
2016-Jul-25 02:25N 35°25' E 139°42'0 0.1
2016-Jul-25 01:31N 35°25' E 139°42'0 0.0
2016-Jul-25 00:31N 35°25' E 139°42'0 0.0
2016-Jul-24 23:31N 35°25' E 139°42'0 0.0
2016-Jul-24 22:31N 35°25' E 139°42'0 0.0
2016-Jul-24 21:31N 35°25' E 139°42'0 0.0
2016-Jul-24 20:31N 35°25' E 139°42'0 0.0
2016-Jul-24 19:31N 35°25' E 139°42'0 0.0
2016-Jul-24 18:31N 35°25' E 139°42'0 0.0
2016-Jul-24 17:31N 35°25' E 139°42'0 0.0
2016-Jul-24 16:31N 35°25' E 139°42'0 0.0
2016-Jul-24 15:31N 35°25' E 139°42'0 0.0
2016-Jul-24 14:33N 35°25' E 139°42'0 0.0
2016-Jul-24 13:33N 35°25' E 139°42'0 0.0
2016-Jul-24 12:33N 35°25' E 139°42'0 0.0
2016-Jul-24 11:33N 35°25' E 139°42'0 0.0
2016-Jul-24 10:33N 35°25' E 139°42'0 0.0
2016-Jul-24 09:33N 35°25' E 139°42'0 0.0
2016-Jul-24 08:33N 35°25' E 139°42'2 1.9
2016-Jul-24 07:33N 35°24' E 139°43'1111.4
2016-Jul-24 06:33N 35°13' E 139°47'26 7.6
2016-Jul-24 03:10N 34°59' E 140°13'  
2016-Jul-16 14:33N 34°35' E 135°05'1010.1
2016-Jul-16 13:33N 34°39' E 135°16'3 3.2
2016-Jul-16 12:32N 34°42' E 135°15'0 0.0
2016-Jul-16 11:32N 34°42' E 135°15'0 0.0
2016-Jul-16 10:32N 34°42' E 135°15'0 0.0
2016-Jul-16 09:27N 34°42' E 135°15'0 0.0
2016-Jul-16 08:32N 34°42' E 135°15'0 0.0
2016-Jul-16 07:26N 34°42' E 135°15'2 2.1
2016-Jul-16 06:33N 34°40' E 135°15'12 6.0
2016-Jul-16 04:32N 34°28' E 135°11'1712.3
2016-Jul-16 03:07N 34°14' E 134°59'  
Track history (hours):
 
Tides and Currents Weather Stations Pressure Air Temp Water Temp Dewpoint Dewpoint Depression Visibility Wind Speed Wind Dir Waves Ship Positions

Pulau Tioman

Last reported at 2016-Jul-26 02:31 UTC. Time now 2016-Jul-26 02:38 UTC.
Position N 35°25' E 139°42'.

Length 120 m; draft 6.5 m.

Type: Cargo ship. MMSI: 356613000.

Date/timePositionNaut miles runAvg speedWind from/ knotsBaromVisibWave heightAir tempDewpointWater temp
2016-Jul-26 02:31N 35°25' E 139°42'0 0.1
2016-Jul-26 01:31N 35°25' E 139°42'0 0.0
2016-Jul-26 00:31N 35°25' E 139°42'0 0.0
2016-Jul-25 23:31N 35°25' E 139°42'0 0.0
2016-Jul-25 22:31N 35°25' E 139°42'0 0.1
2016-Jul-25 21:31N 35°25' E 139°42'0 0.0
2016-Jul-25 20:31N 35°25' E 139°42'0 0.0
2016-Jul-25 19:31N 35°25' E 139°42'0 0.0
2016-Jul-25 18:31N 35°25' E 139°42'0 0.0
2016-Jul-25 17:31N 35°25' E 139°42'0 0.1
2016-Jul-25 16:31N 35°25' E 139°42'0 0.0
2016-Jul-25 15:31N 35°25' E 139°42'0 0.0
2016-Jul-25 14:31N 35°25' E 139°42'0 0.0
2016-Jul-25 13:31N 35°25' E 139°42'0 0.0
2016-Jul-25 12:31N 35°25' E 139°42'0 0.1
2016-Jul-25 11:31N 35°25' E 139°42'0 0.0
2016-Jul-25 10:31N 35°25' E 139°42'0 0.0
2016-Jul-25 09:31N 35°25' E 139°42'0 0.0
2016-Jul-25 08:31N 35°25' E 139°42'0 0.0
2016-Jul-25 07:31N 35°25' E 139°42'0 0.0
2016-Jul-25 06:31N 35°25' E 139°42'0 0.1
2016-Jul-25 05:25N 35°25' E 139°42'0 0.1
2016-Jul-25 04:31N 35°25' E 139°42'0 0.0
2016-Jul-25 03:31N 35°25' E 139°42'0 0.0
2016-Jul-25 02:25N 35°25' E 139°42'0 0.1
2016-Jul-25 01:31N 35°25' E 139°42'0 0.0
2016-Jul-25 00:31N 35°25' E 139°42'0 0.0
2016-Jul-24 23:31N 35°25' E 139°42'0 0.0
2016-Jul-24 22:31N 35°25' E 139°42'0 0.0
2016-Jul-24 21:31N 35°25' E 139°42'0 0.0
2016-Jul-24 20:31N 35°25' E 139°42'0 0.0
2016-Jul-24 19:31N 35°25' E 139°42'0 0.0
2016-Jul-24 18:31N 35°25' E 139°42'0 0.0
2016-Jul-24 17:31N 35°25' E 139°42'0 0.0
2016-Jul-24 16:31N 35°25' E 139°42'0 0.0
2016-Jul-24 15:31N 35°25' E 139°42'0 0.0
2016-Jul-24 14:33N 35°25' E 139°42'0 0.0
2016-Jul-24 13:33N 35°25' E 139°42'0 0.0
2016-Jul-24 12:33N 35°25' E 139°42'0 0.0
2016-Jul-24 11:33N 35°25' E 139°42'0 0.0
2016-Jul-24 10:33N 35°25' E 139°42'0 0.0
2016-Jul-24 09:33N 35°25' E 139°42'0 0.0
2016-Jul-24 08:33N 35°25' E 139°42'2 1.9
2016-Jul-24 07:33N 35°24' E 139°43'1111.4
2016-Jul-24 06:33N 35°13' E 139°47'26 7.6
2016-Jul-24 03:10N 34°59' E 140°13'  
2016-Jul-16 14:33N 34°35' E 135°05'1010.1
2016-Jul-16 13:33N 34°39' E 135°16'3 3.2
2016-Jul-16 12:32N 34°42' E 135°15'0 0.0
2016-Jul-16 11:32N 34°42' E 135°15'0 0.0
2016-Jul-16 10:32N 34°42' E 135°15'0 0.0
2016-Jul-16 09:27N 34°42' E 135°15'0 0.0
2016-Jul-16 08:32N 34°42' E 135°15'0 0.0
2016-Jul-16 07:26N 34°42' E 135°15'2 2.1
2016-Jul-16 06:33N 34°40' E 135°15'12 6.0
2016-Jul-16 04:32N 34°28' E 135°11'1712.3
2016-Jul-16 03:07N 34°14' E 134°59'  

Dump ship's entire track history